createdAt,value
2018-10-02T00:01:26.868Z,2.90
2018-10-02T00:03:55.097Z,3.42
2018-10-02T00:06:23.293Z,7.72
2018-10-02T00:08:51.545Z,5.75
2018-10-02T00:11:25.171Z,3.95
2018-10-02T00:13:58.833Z,4.10
2018-10-02T00:16:27.117Z,3.92
2018-10-02T00:18:55.337Z,4.33
2018-10-02T00:21:23.276Z,4.10
2018-10-02T00:23:51.466Z,3.55
2018-10-02T00:26:19.713Z,3.85
2018-10-02T00:28:47.696Z,5.37
2018-10-02T00:31:16.005Z,3.40
2018-10-02T00:33:44.164Z,6.28
2018-10-02T00:36:12.361Z,3.85
2018-10-02T00:38:40.380Z,3.08
2018-10-02T00:41:08.601Z,3.35
2018-10-02T00:43:36.644Z,7.15
2018-10-02T00:46:04.668Z,6.22
2018-10-02T00:48:32.624Z,5.60
2018-10-02T00:51:00.900Z,6.08
2018-10-02T00:53:29.134Z,4.42
2018-10-02T00:55:57.481Z,4.70
2018-10-02T00:58:25.856Z,5.47
2018-10-02T01:00:54.164Z,4.22
2018-10-02T01:03:22.408Z,5.12
2018-10-02T01:05:50.709Z,3.33
2018-10-02T01:08:18.901Z,3.80
2018-10-02T01:10:47.098Z,5.35
2018-10-02T01:13:15.350Z,6.05
2018-10-02T01:15:43.318Z,5.45
2018-10-02T01:18:11.629Z,5.30
2018-10-02T01:20:39.877Z,2.95
2018-10-02T01:23:08.061Z,6.03
2018-10-02T01:25:36.285Z,4.95
2018-10-02T01:28:04.529Z,2.60
2018-10-02T01:30:32.755Z,3.45
2018-10-02T01:33:00.978Z,3.17
2018-10-02T01:35:29.178Z,4.10
2018-10-02T01:37:57.473Z,3.10
2018-10-02T01:40:25.551Z,3.02
2018-10-02T01:42:53.843Z,2.27
2018-10-02T01:45:21.888Z,4.95
2018-10-02T01:47:49.888Z,6.40
2018-10-02T01:50:18.096Z,2.55
2018-10-02T01:52:46.596Z,2.60
2018-10-02T01:55:15.022Z,2.00
2018-10-02T01:57:43.560Z,6.70
2018-10-02T02:00:11.769Z,5.25
2018-10-02T02:02:39.944Z,2.62
2018-10-02T02:05:08.388Z,3.45
2018-10-02T02:07:36.769Z,5.40
2018-10-02T02:10:05.456Z,2.98
2018-10-02T02:12:34.045Z,2.90
2018-10-02T02:15:02.788Z,4.55
2018-10-02T02:17:31.146Z,4.30
2018-10-02T02:19:59.380Z,2.42
2018-10-02T02:22:27.622Z,4.10
2018-10-02T02:24:56.195Z,9.50
2018-10-02T02:27:24.611Z,3.05
2018-10-02T02:29:52.837Z,3.10
2018-10-02T02:32:21.177Z,5.83
2018-10-02T02:34:49.444Z,6.00
2018-10-02T02:37:17.668Z,3.83
2018-10-02T02:39:46.064Z,6.62
2018-10-02T02:42:14.361Z,7.35
2018-10-02T02:44:42.322Z,8.95
2018-10-02T02:47:16.055Z,9.20
2018-10-02T02:49:49.786Z,6.12
2018-10-02T02:52:20.255Z,6.22
2018-10-02T02:54:48.532Z,9.60
2018-10-02T02:57:16.749Z,8.98
2018-10-02T02:59:44.956Z,8.33
2018-10-02T03:02:13.249Z,8.68
2018-10-02T03:04:41.498Z,10.20
2018-10-02T03:07:09.759Z,15.85
2018-10-02T03:09:37.762Z,11.35
2018-10-02T03:12:05.954Z,10.60
2018-10-02T03:14:34.169Z,12.70
2018-10-02T03:17:02.364Z,9.15
2018-10-02T03:19:30.677Z,9.65
2018-10-02T03:21:58.958Z,14.95
2018-10-02T03:24:27.193Z,16.05
2018-10-02T03:26:55.421Z,11.63
2018-10-02T03:29:23.625Z,14.07
2018-10-02T03:31:51.625Z,13.70
2018-10-02T03:34:19.901Z,15.95
2018-10-02T03:36:48.094Z,16.85
2018-10-02T03:39:16.329Z,16.70
2018-10-02T03:41:44.616Z,12.33
2018-10-02T03:44:12.857Z,15.38
2018-10-02T03:46:41.085Z,16.60
2018-10-02T03:49:09.086Z,13.78
2018-10-02T03:51:37.343Z,16.05
2018-10-02T03:54:05.773Z,19.07
2018-10-02T03:56:33.988Z,13.05
2018-10-02T03:59:02.399Z,15.90
2018-10-02T04:01:30.474Z,17.12
2018-10-02T04:03:58.681Z,15.85
2018-10-02T04:06:26.949Z,12.43
2018-10-02T04:08:55.188Z,12.50
2018-10-02T04:11:23.414Z,12.30
2018-10-02T04:13:51.404Z,13.48
2018-10-02T04:16:19.373Z,15.45
2018-10-02T04:18:47.344Z,16.00
2018-10-02T04:21:19.646Z,13.65
2018-10-02T04:23:47.933Z,16.40
2018-10-02T04:26:16.187Z,12.63
2018-10-02T04:28:44.432Z,13.10
2018-10-02T04:31:12.459Z,17.87
2018-10-02T04:33:40.540Z,17.15
2018-10-02T04:36:08.674Z,17.40
2018-10-02T04:38:36.889Z,13.48
2018-10-02T04:41:05.092Z,17.48
2018-10-02T04:43:33.289Z,17.35
2018-10-02T04:46:01.308Z,12.00
2018-10-02T04:48:29.562Z,14.65
2018-10-02T04:50:57.752Z,9.93
2018-10-02T04:53:26.017Z,9.70
2018-10-02T04:55:54.386Z,15.45
2018-10-02T04:58:22.821Z,14.70
2018-10-02T05:00:51.564Z,13.85
2018-10-02T05:03:19.873Z,11.05
2018-10-02T05:05:48.137Z,13.10
2018-10-02T05:08:16.390Z,10.25
2018-10-02T05:10:44.602Z,14.23
2018-10-02T05:13:12.896Z,13.13
2018-10-02T05:15:41.092Z,13.53
2018-10-02T05:18:09.102Z,12.68
2018-10-02T05:20:37.364Z,13.85
2018-10-02T05:23:05.717Z,11.12
2018-10-02T05:25:33.989Z,11.60
2018-10-02T05:28:02.256Z,11.78
2018-10-02T05:30:30.481Z,16.67
2018-10-02T05:32:58.789Z,11.18
2018-10-02T05:35:27.119Z,14.00
2018-10-02T05:37:55.265Z,14.28
2018-10-02T05:40:27.566Z,12.75
2018-10-02T05:42:55.769Z,14.53
2018-10-02T05:45:24.046Z,17.70
2018-10-02T05:47:52.386Z,19.55
2018-10-02T05:50:20.626Z,13.48
2018-10-02T05:52:48.884Z,17.87
2018-10-02T05:55:17.142Z,16.77
2018-10-02T05:57:45.641Z,20.97
2018-10-02T06:00:13.916Z,19.05
2018-10-02T06:02:42.201Z,21.42
2018-10-02T06:05:10.586Z,21.35
2018-10-02T06:07:38.862Z,18.55
2018-10-02T06:10:08.162Z,19.05
2018-10-02T06:12:36.442Z,18.25
2018-10-02T06:15:04.714Z,14.78
2018-10-02T06:17:32.989Z,13.53
2018-10-02T06:20:01.308Z,17.02
2018-10-02T06:22:29.514Z,15.18
2018-10-02T06:24:57.733Z,13.50
2018-10-02T06:27:25.952Z,9.30
2018-10-02T06:29:54.235Z,13.28
2018-10-02T06:32:22.452Z,16.25
2018-10-02T06:34:50.720Z,10.72
2018-10-02T06:37:18.955Z,11.33
2018-10-02T06:39:47.162Z,9.78
2018-10-02T06:42:15.466Z,9.63
2018-10-02T06:44:50.140Z,9.38
2018-10-02T06:47:18.100Z,11.05
2018-10-02T06:49:46.331Z,13.13
2018-10-02T06:52:14.742Z,15.13
2018-10-02T06:54:42.814Z,8.75
2018-10-02T06:57:11.110Z,9.75
2018-10-02T06:59:39.438Z,10.75
2018-10-02T07:02:07.685Z,11.25
2018-10-02T07:04:35.692Z,13.68
2018-10-02T07:07:03.640Z,9.03
2018-10-02T07:09:31.902Z,7.55
2018-10-02T07:12:00.240Z,15.03
2018-10-02T07:14:28.536Z,9.23
2018-10-02T07:17:05.451Z,10.40
2018-10-02T07:19:33.702Z,14.18
2018-10-02T07:22:02.033Z,14.35
2018-10-02T07:24:30.237Z,12.55
2018-10-02T07:26:58.485Z,9.20
2018-10-02T07:29:26.503Z,10.68
2018-10-02T07:31:54.754Z,13.83
2018-10-02T07:34:23.198Z,13.93
2018-10-02T07:36:51.886Z,10.50
2018-10-02T07:39:20.096Z,10.50
2018-10-02T07:41:48.353Z,14.85
2018-10-02T07:44:16.458Z,12.98
2018-10-02T07:46:44.708Z,10.40
2018-10-02T07:49:12.981Z,14.10
2018-10-02T07:51:41.184Z,11.18
2018-10-02T07:54:09.545Z,13.90
2018-10-02T07:56:37.793Z,15.70
2018-10-02T07:59:06.079Z,11.80
2018-10-02T08:01:34.322Z,11.93
2018-10-02T08:04:02.565Z,13.90
2018-10-02T08:06:30.834Z,12.30
2018-10-02T08:08:59.174Z,15.63
2018-10-02T08:11:27.200Z,15.08
2018-10-02T08:13:55.573Z,16.95
2018-10-02T08:16:23.869Z,10.30
2018-10-02T08:18:52.134Z,12.07
2018-10-02T08:21:20.322Z,10.88
2018-10-02T08:23:48.893Z,10.55
2018-10-02T08:26:16.881Z,10.50
2018-10-02T08:28:45.132Z,10.60
2018-10-02T08:31:13.133Z,10.80
2018-10-02T08:33:41.505Z,13.03
2018-10-02T08:36:10.256Z,16.48
2018-10-02T08:38:38.324Z,15.55
2018-10-02T08:41:06.630Z,20.02
2018-10-02T08:43:34.976Z,11.97
2018-10-02T08:46:03.101Z,13.62
2018-10-02T08:48:31.210Z,15.08
2018-10-02T08:50:59.473Z,19.55
2018-10-02T08:53:27.675Z,15.95
2018-10-02T08:55:55.921Z,15.78
2018-10-02T08:58:27.179Z,18.50
2018-10-02T09:00:55.218Z,12.93
2018-10-02T09:03:23.612Z,14.73
2018-10-02T09:05:51.840Z,16.65
2018-10-02T09:08:20.155Z,13.20
2018-10-02T09:10:48.417Z,11.20
2018-10-02T09:13:16.910Z,17.00
2018-10-02T09:15:44.998Z,15.58
2018-10-02T09:18:13.193Z,16.48
2018-10-02T09:20:41.471Z,14.83
2018-10-02T09:23:09.658Z,15.70
2018-10-02T09:25:37.869Z,16.50
2018-10-02T09:28:06.418Z,13.80
2018-10-02T09:30:40.214Z,15.13
2018-10-02T09:33:13.817Z,16.95
2018-10-02T09:35:47.594Z,12.68
2018-10-02T09:38:21.280Z,10.55
2018-10-02T09:40:54.866Z,15.15
2018-10-02T09:43:26.406Z,18.57
2018-10-02T09:45:56.359Z,10.23
2018-10-02T09:48:28.614Z,14.83
2018-10-02T09:50:57.006Z,20.85
2018-10-02T09:53:25.190Z,10.98
2018-10-02T09:55:53.477Z,11.95
2018-10-02T09:58:21.716Z,14.78
2018-10-02T10:00:55.321Z,9.53
2018-10-02T10:03:23.465Z,13.30
2018-10-02T10:05:51.681Z,10.70
2018-10-02T10:08:19.977Z,14.50
2018-10-02T10:10:48.728Z,17.23
2018-10-02T10:13:17.030Z,23.22
2018-10-02T10:15:45.346Z,19.87
2018-10-02T10:18:13.620Z,30.20
2018-10-02T10:20:41.982Z,40.25
2018-10-02T10:23:10.210Z,27.10
2018-10-02T10:25:39.174Z,22.52
2018-10-02T10:28:07.430Z,17.32
2018-10-02T10:30:35.690Z,20.05
2018-10-02T10:33:03.966Z,19.92
2018-10-02T10:35:32.273Z,12.15
2018-10-02T10:38:00.593Z,18.50
2018-10-02T10:40:28.860Z,14.90
2018-10-02T10:42:57.050Z,10.88
2018-10-02T10:45:25.350Z,14.47
2018-10-02T10:47:53.390Z,10.18
2018-10-02T10:50:21.663Z,13.35
2018-10-02T10:52:49.962Z,20.40
2018-10-02T10:55:27.234Z,9.98
2018-10-02T10:57:55.488Z,18.80
2018-10-02T11:00:23.774Z,7.78
2018-10-02T11:02:52.062Z,8.28
2018-10-02T11:05:20.329Z,12.23
2018-10-02T11:07:48.575Z,7.77
2018-10-02T11:10:17.982Z,5.65
2018-10-02T11:12:46.449Z,13.37
2018-10-02T11:15:14.999Z,7.33
2018-10-02T11:17:43.186Z,10.70
2018-10-02T11:20:13.022Z,10.43
2018-10-02T11:22:41.378Z,12.40
2018-10-02T11:25:09.655Z,6.40
2018-10-02T11:27:37.893Z,5.50
2018-10-02T11:30:06.754Z,8.77
2018-10-02T11:32:34.730Z,3.93
2018-10-02T11:35:03.008Z,12.73
2018-10-02T11:37:31.071Z,5.80
2018-10-02T11:39:59.057Z,8.97
2018-10-02T11:42:27.269Z,7.23
2018-10-02T11:44:55.407Z,10.00
2018-10-02T11:47:23.573Z,9.03
2018-10-02T11:49:51.947Z,9.50
2018-10-02T11:52:20.624Z,5.27
2018-10-02T11:54:48.938Z,5.03
2018-10-02T11:57:17.221Z,9.77
2018-10-02T11:59:45.502Z,10.50
2018-10-02T12:02:13.860Z,6.77
2018-10-02T12:04:42.463Z,9.30
2018-10-02T12:07:10.670Z,7.40
2018-10-02T12:09:38.914Z,7.37
2018-10-02T12:12:07.343Z,7.17
2018-10-02T12:14:35.761Z,9.70
2018-10-02T12:17:04.061Z,5.70
2018-10-02T12:19:32.391Z,4.43
2018-10-02T12:22:00.578Z,5.33
2018-10-02T12:24:28.805Z,5.30
2018-10-02T12:26:57.054Z,3.87
2018-10-02T12:29:25.278Z,6.70
2018-10-02T12:31:53.283Z,6.47
2018-10-02T12:34:21.781Z,6.47
2018-10-02T12:36:50.774Z,6.60
2018-10-02T12:39:19.020Z,6.10
2018-10-02T12:41:47.273Z,2.63
2018-10-02T12:44:15.541Z,3.53
2018-10-02T12:46:43.759Z,4.27
2018-10-02T12:49:12.070Z,4.23
2018-10-02T12:51:40.910Z,7.97
2018-10-02T12:54:09.222Z,4.37
2018-10-02T12:56:37.450Z,3.30
2018-10-02T12:59:05.641Z,8.13
2018-10-02T13:01:33.970Z,4.43
2018-10-02T13:04:02.178Z,5.40
2018-10-02T13:06:30.563Z,4.30
2018-10-02T13:08:58.800Z,6.30
2018-10-02T13:11:27.038Z,4.13
2018-10-02T13:13:55.294Z,7.47
2018-10-02T13:16:23.537Z,5.47
2018-10-02T13:18:51.797Z,6.73
2018-10-02T13:21:20.014Z,4.73
2018-10-02T13:23:48.033Z,4.43
2018-10-02T13:26:16.270Z,7.93
2018-10-02T13:28:44.493Z,7.40
2018-10-02T13:31:12.816Z,5.10
2018-10-02T13:33:41.066Z,8.00
2018-10-02T13:36:09.406Z,3.43
2018-10-02T13:38:37.437Z,5.93
2018-10-02T13:41:05.738Z,4.30
2018-10-02T13:43:34.035Z,7.37
2018-10-02T13:46:02.308Z,6.80
2018-10-02T13:48:30.553Z,6.90
2018-10-02T13:50:58.854Z,11.13
2018-10-02T13:53:27.067Z,6.03
2018-10-02T13:55:55.334Z,8.03
2018-10-02T13:58:23.569Z,6.97
2018-10-02T14:00:51.837Z,14.93
2018-10-02T14:03:20.113Z,6.83
2018-10-02T14:05:48.121Z,8.60
2018-10-02T14:08:16.398Z,13.00
2018-10-02T14:10:44.575Z,12.03
2018-10-02T14:13:12.717Z,8.37
2018-10-02T14:15:40.746Z,11.93
2018-10-02T14:18:09.000Z,7.27
2018-10-02T14:20:37.257Z,5.20
2018-10-02T14:23:05.744Z,6.43
2018-10-02T14:25:34.014Z,5.40
2018-10-02T14:28:02.312Z,4.67
2018-10-02T14:30:30.562Z,9.93
2018-10-02T14:32:58.828Z,11.17
2018-10-02T14:35:27.045Z,10.00
2018-10-02T14:37:55.333Z,7.23
2018-10-02T14:40:23.694Z,6.93
2018-10-02T14:42:51.923Z,5.20
2018-10-02T14:45:20.150Z,6.70
2018-10-02T14:47:48.444Z,5.30
2018-10-02T14:50:16.747Z,7.27
2018-10-02T14:52:45.024Z,18.07
2018-10-02T14:55:13.370Z,7.20
2018-10-02T14:57:41.453Z,7.15
2018-10-02T15:00:09.739Z,10.23
2018-10-02T15:02:37.754Z,11.70
2018-10-02T15:05:05.708Z,6.70
2018-10-02T15:07:33.666Z,14.73
2018-10-02T15:10:01.898Z,7.03
2018-10-02T15:12:30.232Z,7.80
2018-10-02T15:14:58.462Z,10.03
2018-10-02T15:17:26.740Z,5.87
2018-10-02T15:19:54.946Z,6.03
2018-10-02T15:22:23.206Z,8.20
2018-10-02T15:24:51.478Z,3.57
2018-10-02T15:27:19.506Z,7.90
2018-10-02T15:29:47.764Z,8.27
2018-10-02T15:32:16.002Z,8.87
2018-10-02T15:34:44.254Z,5.47
2018-10-02T15:37:12.813Z,7.87
2018-10-02T15:39:41.117Z,6.83
2018-10-02T15:42:09.286Z,4.90
2018-10-02T15:44:37.620Z,8.30
2018-10-02T15:47:05.778Z,6.70
2018-10-02T15:49:34.030Z,4.90
2018-10-02T15:52:02.249Z,6.30
2018-10-02T15:54:30.466Z,8.27
2018-10-02T15:56:58.730Z,4.45
2018-10-02T15:59:26.691Z,3.80
2018-10-02T16:01:54.932Z,6.03
2018-10-02T16:04:23.221Z,6.28
2018-10-02T16:06:51.293Z,6.65
2018-10-02T16:09:19.612Z,6.17
2018-10-02T16:11:47.778Z,6.20
2018-10-02T16:14:15.949Z,8.95
2018-10-02T16:16:44.356Z,10.13
2018-10-02T16:19:12.329Z,8.48
2018-10-02T16:21:41.400Z,9.68
2018-10-02T16:24:09.396Z,6.55
2018-10-02T16:26:37.653Z,8.93
2018-10-02T16:29:06.105Z,5.58
2018-10-02T16:31:34.377Z,7.83
2018-10-02T16:34:02.638Z,11.90
2018-10-02T16:36:30.773Z,5.45
2018-10-02T16:38:59.090Z,10.13
2018-10-02T16:41:27.096Z,8.70
2018-10-02T16:43:55.134Z,8.78
2018-10-02T16:46:23.162Z,10.68
2018-10-02T16:48:51.646Z,7.55
2018-10-02T16:51:19.943Z,8.88
2018-10-02T16:53:48.190Z,11.18
2018-10-02T16:56:16.474Z,6.17
2018-10-02T16:58:44.573Z,8.58
2018-10-02T17:01:12.852Z,8.68
2018-10-02T17:03:41.078Z,8.25
2018-10-02T17:06:09.415Z,10.05
2018-10-02T17:08:37.681Z,8.40
2018-10-02T17:11:06.152Z,6.33
2018-10-02T17:13:34.214Z,7.17
2018-10-02T17:16:02.226Z,6.72
2018-10-02T17:18:30.473Z,8.63
2018-10-02T17:20:58.777Z,11.40
2018-10-02T17:23:27.078Z,16.93
2018-10-02T17:25:55.072Z,13.15
2018-10-02T17:28:23.360Z,8.88
2018-10-02T17:30:51.666Z,6.87
2018-10-02T17:33:19.978Z,10.80
2018-10-02T17:35:48.348Z,12.50
2018-10-02T17:38:16.684Z,13.10
2018-10-02T17:40:45.221Z,15.00
2018-10-02T17:43:13.473Z,8.13
2018-10-02T17:45:41.730Z,16.12
2018-10-02T17:48:10.374Z,13.10
2018-10-02T17:50:38.605Z,17.67
2018-10-02T17:53:06.916Z,9.33
2018-10-02T17:55:35.146Z,9.95
2018-10-02T17:58:03.686Z,7.50
2018-10-02T18:00:32.035Z,5.83
2018-10-02T18:03:00.301Z,13.98
2018-10-02T18:05:28.573Z,9.60
2018-10-02T18:07:56.830Z,8.20
2018-10-02T18:10:25.309Z,6.45
2018-10-02T18:12:53.538Z,8.88
2018-10-02T18:15:21.758Z,12.28
2018-10-02T18:17:50.099Z,13.05
2018-10-02T18:20:18.375Z,11.25
2018-10-02T18:22:46.529Z,10.85
2018-10-02T18:25:14.551Z,10.50
2018-10-02T18:27:42.576Z,12.50
2018-10-02T18:30:10.862Z,17.37
2018-10-02T18:32:39.120Z,11.50
2018-10-02T18:35:07.436Z,8.15
2018-10-02T18:37:35.737Z,15.60
2018-10-02T18:40:04.027Z,11.93
2018-10-02T18:42:32.777Z,11.30
2018-10-02T18:45:00.978Z,13.15
2018-10-02T18:47:29.209Z,16.27
2018-10-02T18:49:57.226Z,12.18
2018-10-02T18:52:25.277Z,17.45
2018-10-02T18:54:53.246Z,11.40
2018-10-02T18:57:21.247Z,17.90
2018-10-02T18:59:49.762Z,13.58
2018-10-02T19:02:17.865Z,10.70
2018-10-02T19:04:46.187Z,7.37
2018-10-02T19:07:14.219Z,12.65
2018-10-02T19:09:42.474Z,10.40
2018-10-02T19:12:18.385Z,14.60
2018-10-02T19:14:46.725Z,13.32
2018-10-02T19:17:15.010Z,9.35
2018-10-02T19:19:48.590Z,9.65
2018-10-02T19:22:16.640Z,12.33
2018-10-02T19:24:44.963Z,15.23
2018-10-02T19:27:13.026Z,11.10
2018-10-02T19:29:41.301Z,12.93
2018-10-02T19:32:16.356Z,8.70
2018-10-02T19:34:44.561Z,11.12
2018-10-02T19:37:18.212Z,8.20
2018-10-02T19:39:46.421Z,8.33
2018-10-02T19:42:15.171Z,9.88
2018-10-02T19:44:43.562Z,13.45
2018-10-02T19:47:11.920Z,10.15
2018-10-02T19:49:40.154Z,10.43
2018-10-02T19:52:12.476Z,10.40
2018-10-02T19:54:40.976Z,12.05
2018-10-02T19:57:10.770Z,8.23
2018-10-02T19:59:39.103Z,9.95
2018-10-02T20:02:07.322Z,9.58
2018-10-02T20:04:35.954Z,13.55
2018-10-02T20:07:04.363Z,11.00
2018-10-02T20:09:32.594Z,7.95
2018-10-02T20:12:00.631Z,7.87
2018-10-02T20:14:28.942Z,7.87
2018-10-02T20:16:57.282Z,13.08
2018-10-02T20:19:25.510Z,14.15
2018-10-02T20:21:53.898Z,15.03
2018-10-02T20:24:21.857Z,15.05
2018-10-02T20:26:50.139Z,10.53
2018-10-02T20:29:18.134Z,20.80
2018-10-02T20:31:48.131Z,8.03
2018-10-02T20:34:16.163Z,7.33
2018-10-02T20:36:44.398Z,10.55
2018-10-02T20:39:12.842Z,15.63
2018-10-02T20:41:41.185Z,11.75
2018-10-02T20:44:10.166Z,13.20
2018-10-02T20:46:38.176Z,14.68
2018-10-02T20:49:06.521Z,12.93
2018-10-02T20:51:34.766Z,15.55
2018-10-02T20:54:03.051Z,12.33
2018-10-02T20:56:31.526Z,18.12
2018-10-02T20:58:59.743Z,9.03
2018-10-02T21:01:28.067Z,11.20
2018-10-02T21:03:56.522Z,12.90
2018-10-02T21:06:24.986Z,19.48
2018-10-02T21:08:53.387Z,14.10
2018-10-02T21:11:21.585Z,10.23
2018-10-02T21:13:49.992Z,9.28
2018-10-02T21:16:17.964Z,14.35
2018-10-02T21:18:45.992Z,8.53
2018-10-02T21:21:14.154Z,9.00
2018-10-02T21:23:42.481Z,10.48
2018-10-02T21:26:10.729Z,13.93
2018-10-02T21:28:38.794Z,10.35
2018-10-02T21:31:06.981Z,14.05
2018-10-02T21:33:34.949Z,11.50
2018-10-02T21:36:03.244Z,14.40
2018-10-02T21:38:31.521Z,13.05
2018-10-02T21:40:59.721Z,14.00
2018-10-02T21:43:28.513Z,14.18
2018-10-02T21:45:56.967Z,12.95
2018-10-02T21:48:25.359Z,11.80
2018-10-02T21:50:53.541Z,21.12
2018-10-02T21:53:21.822Z,14.85
2018-10-02T21:55:50.074Z,10.18
2018-10-02T21:58:18.425Z,17.00
2018-10-02T22:00:47.001Z,12.05
2018-10-02T22:03:15.242Z,10.88
2018-10-02T22:05:43.329Z,12.85
2018-10-02T22:08:11.566Z,18.37
2018-10-02T22:10:40.719Z,13.28
2018-10-02T22:13:08.949Z,12.40
2018-10-02T22:15:37.230Z,10.98
2018-10-02T22:18:05.335Z,9.55
2018-10-02T22:20:33.581Z,7.75
2018-10-02T22:23:02.174Z,10.80
2018-10-02T22:25:30.382Z,15.35
2018-10-02T22:27:58.605Z,16.80
2018-10-02T22:30:26.905Z,11.95
2018-10-02T22:32:55.644Z,11.30
2018-10-02T22:35:23.884Z,13.43
2018-10-02T22:37:52.165Z,13.20
2018-10-02T22:40:20.406Z,15.70
2018-10-02T22:42:48.677Z,13.05
2018-10-02T22:45:16.994Z,16.10
2018-10-02T22:47:44.969Z,15.45
2018-10-02T22:50:13.289Z,19.40
2018-10-02T22:52:41.544Z,19.00
2018-10-02T22:55:09.758Z,13.93
2018-10-02T22:57:38.026Z,8.83
2018-10-02T23:00:06.257Z,18.70
2018-10-02T23:02:34.522Z,11.30
2018-10-02T23:05:02.757Z,11.85
2018-10-02T23:07:31.149Z,17.82
2018-10-02T23:09:59.417Z,15.63
2018-10-02T23:12:27.737Z,13.50
2018-10-02T23:14:56.016Z,14.23
2018-10-02T23:17:24.270Z,20.55
2018-10-02T23:19:52.506Z,12.63
2018-10-02T23:22:20.805Z,22.90
2018-10-02T23:24:49.021Z,26.45
2018-10-02T23:27:17.005Z,14.18
2018-10-02T23:29:45.215Z,13.70
2018-10-02T23:32:13.421Z,9.58
2018-10-02T23:34:41.689Z,11.88
2018-10-02T23:37:09.943Z,15.83
2018-10-02T23:39:38.217Z,16.30
2018-10-02T23:42:06.499Z,16.50
2018-10-02T23:44:34.793Z,13.95
2018-10-02T23:47:03.024Z,13.18
2018-10-02T23:49:31.274Z,17.07
2018-10-02T23:51:59.565Z,13.00
2018-10-02T23:54:28.053Z,14.07
2018-10-02T23:56:56.329Z,14.05
2018-10-02T23:59:24.622Z,19.77
